sensor_id;sensor_type;location;lat;lon;timestamp;P1;durP1;ratioP1;P2;durP2;ratioP2
75997;SDS011;64685;48.762;44.822;2023-03-14T00:04:58;12.43;;;4.25;;
75997;SDS011;64685;48.762;44.822;2023-03-14T00:10:20;16.65;;;5.35;;
75997;SDS011;64685;48.762;44.822;2023-03-14T00:15:41;15.13;;;5.50;;
75997;SDS011;64685;48.762;44.822;2023-03-14T00:21:03;12.15;;;4.43;;
75997;SDS011;64685;48.762;44.822;2023-03-14T00:26:26;11.88;;;4.88;;
75997;SDS011;64685;48.762;44.822;2023-03-14T00:31:46;12.65;;;5.18;;
75997;SDS011;64685;48.762;44.822;2023-03-14T00:37:07;12.30;;;4.50;;
75997;SDS011;64685;48.762;44.822;2023-03-14T00:42:31;12.35;;;4.80;;
75997;SDS011;64685;48.762;44.822;2023-03-14T00:47:52;12.68;;;4.63;;
75997;SDS011;64685;48.762;44.822;2023-03-14T00:53:13;9.63;;;3.67;;
75997;SDS011;64685;48.762;44.822;2023-03-14T00:58:17;8.23;;;3.35;;
75997;SDS011;64685;48.762;44.822;2023-03-14T01:03:20;10.57;;;3.08;;
75997;SDS011;64685;48.762;44.822;2023-03-14T01:08:24;7.40;;;3.10;;
75997;SDS011;64685;48.762;44.822;2023-03-14T01:13:28;11.48;;;3.03;;
75997;SDS011;64685;48.762;44.822;2023-03-14T01:18:31;9.98;;;3.58;;
75997;SDS011;64685;48.762;44.822;2023-03-14T01:23:53;7.97;;;3.03;;
75997;SDS011;64685;48.762;44.822;2023-03-14T01:29:15;11.35;;;4.10;;
75997;SDS011;64685;48.762;44.822;2023-03-14T01:39:29;10.82;;;3.85;;
75997;SDS011;64685;48.762;44.822;2023-03-14T01:44:52;12.25;;;4.45;;
75997;SDS011;64685;48.762;44.822;2023-03-14T01:50:06;11.68;;;4.95;;
75997;SDS011;64685;48.762;44.822;2023-03-14T01:55:15;12.60;;;5.03;;
75997;SDS011;64685;48.762;44.822;2023-03-14T02:00:23;13.80;;;5.10;;
75997;SDS011;64685;48.762;44.822;2023-03-14T02:05:26;9.13;;;5.47;;
75997;SDS011;64685;48.762;44.822;2023-03-14T02:10:38;10.95;;;4.30;;
75997;SDS011;64685;48.762;44.822;2023-03-14T02:15:44;9.95;;;4.43;;
75997;SDS011;64685;48.762;44.822;2023-03-14T02:26:20;15.15;;;5.30;;
75997;SDS011;64685;48.762;44.822;2023-03-14T02:31:29;10.65;;;5.32;;
75997;SDS011;64685;48.762;44.822;2023-03-14T02:36:32;13.48;;;5.85;;
75997;SDS011;64685;48.762;44.822;2023-03-14T02:41:35;13.50;;;5.10;;
75997;SDS011;64685;48.762;44.822;2023-03-14T02:46:40;17.05;;;6.05;;
75997;SDS011;64685;48.762;44.822;2023-03-14T02:51:44;16.48;;;5.68;;
75997;SDS011;64685;48.762;44.822;2023-03-14T02:56:48;15.88;;;5.45;;
75997;SDS011;64685;48.762;44.822;2023-03-14T03:01:50;11.90;;;5.10;;
75997;SDS011;64685;48.762;44.822;2023-03-14T03:06:53;14.95;;;4.03;;
75997;SDS011;64685;48.762;44.822;2023-03-14T03:11:56;11.27;;;4.82;;
75997;SDS011;64685;48.762;44.822;2023-03-14T03:17:01;10.82;;;4.40;;
75997;SDS011;64685;48.762;44.822;2023-03-14T03:22:03;13.27;;;4.65;;
75997;SDS011;64685;48.762;44.822;2023-03-14T03:27:06;13.23;;;4.90;;
75997;SDS011;64685;48.762;44.822;2023-03-14T03:32:09;15.40;;;5.00;;
75997;SDS011;64685;48.762;44.822;2023-03-14T03:37:12;11.25;;;4.32;;
75997;SDS011;64685;48.762;44.822;2023-03-14T03:42:16;12.18;;;4.80;;
75997;SDS011;64685;48.762;44.822;2023-03-14T03:47:19;11.52;;;3.85;;
75997;SDS011;64685;48.762;44.822;2023-03-14T03:52:22;14.00;;;4.97;;
75997;SDS011;64685;48.762;44.822;2023-03-14T03:57:24;14.55;;;4.95;;
75997;SDS011;64685;48.762;44.822;2023-03-14T04:02:27;11.82;;;4.55;;
75997;SDS011;64685;48.762;44.822;2023-03-14T04:07:33;11.95;;;3.67;;
75997;SDS011;64685;48.762;44.822;2023-03-14T04:12:36;9.88;;;4.35;;
75997;SDS011;64685;48.762;44.822;2023-03-14T04:17:43;7.90;;;3.17;;
75997;SDS011;64685;48.762;44.822;2023-03-14T04:22:48;10.45;;;4.40;;
75997;SDS011;64685;48.762;44.822;2023-03-14T04:27:51;15.95;;;4.18;;
75997;SDS011;64685;48.762;44.822;2023-03-14T04:32:58;14.20;;;4.25;;
75997;SDS011;64685;48.762;44.822;2023-03-14T04:38:02;14.93;;;3.90;;
75997;SDS011;64685;48.762;44.822;2023-03-14T04:43:07;6.32;;;2.15;;
75997;SDS011;64685;48.762;44.822;2023-03-14T04:48:18;6.78;;;1.80;;
75997;SDS011;64685;48.762;44.822;2023-03-14T04:53:21;5.50;;;2.10;;
75997;SDS011;64685;48.762;44.822;2023-03-14T04:58:27;6.10;;;1.88;;
75997;SDS011;64685;48.762;44.822;2023-03-14T05:03:31;5.20;;;1.65;;
75997;SDS011;64685;48.762;44.822;2023-03-14T05:09:12;7.50;;;2.10;;
75997;SDS011;64685;48.762;44.822;2023-03-14T05:14:34;6.50;;;1.70;;
75997;SDS011;64685;48.762;44.822;2023-03-14T05:20:00;4.88;;;1.85;;
75997;SDS011;64685;48.762;44.822;2023-03-14T05:25:23;5.80;;;1.50;;
75997;SDS011;64685;48.762;44.822;2023-03-14T05:30:38;9.82;;;3.45;;
75997;SDS011;64685;48.762;44.822;2023-03-14T05:36:04;15.88;;;6.28;;
75997;SDS011;64685;48.762;44.822;2023-03-14T05:41:43;21.02;;;7.63;;
75997;SDS011;64685;48.762;44.822;2023-03-14T05:47:05;18.67;;;5.25;;
75997;SDS011;64685;48.762;44.822;2023-03-14T05:52:29;4.35;;;1.15;;
75997;SDS011;64685;48.762;44.822;2023-03-14T05:57:42;2.92;;;1.15;;
75997;SDS011;64685;48.762;44.822;2023-03-14T06:02:56;2.78;;;0.75;;
75997;SDS011;64685;48.762;44.822;2023-03-14T06:08:04;1.55;;;0.68;;
75997;SDS011;64685;48.762;44.822;2023-03-14T06:13:07;1.77;;;0.73;;
75997;SDS011;64685;48.762;44.822;2023-03-14T06:18:10;4.82;;;1.17;;
75997;SDS011;64685;48.762;44.822;2023-03-14T06:23:15;1.92;;;0.70;;
75997;SDS011;64685;48.762;44.822;2023-03-14T06:28:18;3.67;;;1.83;;
75997;SDS011;64685;48.762;44.822;2023-03-14T06:33:20;2.38;;;1.77;;
75997;SDS011;64685;48.762;44.822;2023-03-14T06:38:23;3.67;;;3.38;;
75997;SDS011;64685;48.762;44.822;2023-03-14T06:43:29;1.42;;;0.60;;
75997;SDS011;64685;48.762;44.822;2023-03-14T06:48:32;4.57;;;4.18;;
75997;SDS011;64685;48.762;44.822;2023-03-14T06:53:36;17.52;;;16.42;;
75997;SDS011;64685;48.762;44.822;2023-03-14T06:58:41;2.65;;;1.08;;
75997;SDS011;64685;48.762;44.822;2023-03-14T07:03:46;2.90;;;2.55;;
75997;SDS011;64685;48.762;44.822;2023-03-14T07:08:49;5.88;;;5.50;;
75997;SDS011;64685;48.762;44.822;2023-03-14T07:13:53;1.42;;;0.60;;
75997;SDS011;64685;48.762;44.822;2023-03-14T07:18:55;10.05;;;9.07;;
75997;SDS011;64685;48.762;44.822;2023-03-14T07:23:59;3.67;;;0.77;;
75997;SDS011;64685;48.762;44.822;2023-03-14T07:29:02;2.65;;;2.45;;
75997;SDS011;64685;48.762;44.822;2023-03-14T07:34:07;5.88;;;5.32;;
75997;SDS011;64685;48.762;44.822;2023-03-14T07:39:14;3.75;;;1.70;;
75997;SDS011;64685;48.762;44.822;2023-03-14T07:44:41;1.58;;;0.70;;
75997;SDS011;64685;48.762;44.822;2023-03-14T07:49:44;6.35;;;0.98;;
75997;SDS011;64685;48.762;44.822;2023-03-14T07:54:46;11.07;;;10.23;;
75997;SDS011;64685;48.762;44.822;2023-03-14T07:59:49;1.88;;;0.80;;
75997;SDS011;64685;48.762;44.822;2023-03-14T08:04:52;2.25;;;1.80;;
75997;SDS011;64685;48.762;44.822;2023-03-14T08:09:54;2.08;;;0.95;;
75997;SDS011;64685;48.762;44.822;2023-03-14T08:14:57;1.73;;;0.90;;
75997;SDS011;64685;48.762;44.822;2023-03-14T08:20:02;3.25;;;1.13;;
75997;SDS011;64685;48.762;44.822;2023-03-14T08:25:08;1.35;;;0.60;;
75997;SDS011;64685;48.762;44.822;2023-03-14T08:30:12;1.50;;;0.70;;
75997;SDS011;64685;48.762;44.822;2023-03-14T08:35:17;1.75;;;0.70;;
75997;SDS011;64685;48.762;44.822;2023-03-14T08:40:19;1.25;;;0.80;;
75997;SDS011;64685;48.762;44.822;2023-03-14T08:45:22;3.08;;;0.90;;
75997;SDS011;64685;48.762;44.822;2023-03-14T08:50:27;4.20;;;0.90;;
75997;SDS011;64685;48.762;44.822;2023-03-14T08:55:29;4.75;;;1.05;;
75997;SDS011;64685;48.762;44.822;2023-03-14T09:00:32;3.17;;;1.00;;
75997;SDS011;64685;48.762;44.822;2023-03-14T09:05:35;1.67;;;0.70;;
75997;SDS011;64685;48.762;44.822;2023-03-14T09:10:37;1.38;;;0.80;;
75997;SDS011;64685;48.762;44.822;2023-03-14T09:15:40;1.83;;;1.00;;
75997;SDS011;64685;48.762;44.822;2023-03-14T09:20:44;2.03;;;0.75;;
75997;SDS011;64685;48.762;44.822;2023-03-14T09:25:46;2.03;;;0.90;;
75997;SDS011;64685;48.762;44.822;2023-03-14T09:30:49;2.67;;;0.70;;
75997;SDS011;64685;48.762;44.822;2023-03-14T09:35:52;2.17;;;0.75;;
75997;SDS011;64685;48.762;44.822;2023-03-14T09:40:55;2.08;;;0.70;;
75997;SDS011;64685;48.762;44.822;2023-03-14T09:46:01;1.33;;;0.75;;
75997;SDS011;64685;48.762;44.822;2023-03-14T09:51:06;1.42;;;0.57;;
75997;SDS011;64685;48.762;44.822;2023-03-14T09:56:17;1.05;;;0.55;;
75997;SDS011;64685;48.762;44.822;2023-03-14T10:01:32;0.82;;;0.52;;
75997;SDS011;64685;48.762;44.822;2023-03-14T10:06:35;1.23;;;0.50;;
75997;SDS011;64685;48.762;44.822;2023-03-14T10:11:39;4.07;;;1.15;;
75997;SDS011;64685;48.762;44.822;2023-03-14T10:16:43;2.33;;;0.75;;
75997;SDS011;64685;48.762;44.822;2023-03-14T10:21:50;1.42;;;0.47;;
75997;SDS011;64685;48.762;44.822;2023-03-14T10:27:00;1.52;;;0.63;;
75997;SDS011;64685;48.762;44.822;2023-03-14T10:32:06;1.17;;;0.50;;
75997;SDS011;64685;48.762;44.822;2023-03-14T10:37:21;2.22;;;0.80;;
75997;SDS011;64685;48.762;44.822;2023-03-14T10:42:28;0.70;;;0.40;;
75997;SDS011;64685;48.762;44.822;2023-03-14T10:47:36;1.10;;;0.60;;
75997;SDS011;64685;48.762;44.822;2023-03-14T10:52:52;1.23;;;0.50;;
75997;SDS011;64685;48.762;44.822;2023-03-14T10:58:04;1.25;;;0.70;;
75997;SDS011;64685;48.762;44.822;2023-03-14T11:03:13;1.30;;;0.60;;
75997;SDS011;64685;48.762;44.822;2023-03-14T11:13:24;2.13;;;0.73;;
75997;SDS011;64685;48.762;44.822;2023-03-14T11:29:19;1.38;;;0.50;;
75997;SDS011;64685;48.762;44.822;2023-03-14T11:34:38;4.55;;;0.75;;
75997;SDS011;64685;48.762;44.822;2023-03-14T11:39:47;1.05;;;0.30;;
75997;SDS011;64685;48.762;44.822;2023-03-14T11:44:58;2.00;;;0.40;;
75997;SDS011;64685;48.762;44.822;2023-03-14T11:50:21;2.10;;;0.43;;
75997;SDS011;64685;48.762;44.822;2023-03-14T11:55:33;2.35;;;0.77;;
75997;SDS011;64685;48.762;44.822;2023-03-14T12:00:38;1.33;;;0.50;;
75997;SDS011;64685;48.762;44.822;2023-03-14T12:16:34;1.05;;;0.52;;
75997;SDS011;64685;48.762;44.822;2023-03-14T12:21:58;1.52;;;0.60;;
75997;SDS011;64685;48.762;44.822;2023-03-14T12:27:10;2.67;;;0.73;;
75997;SDS011;64685;48.762;44.822;2023-03-14T12:32:35;3.72;;;0.75;;
75997;SDS011;64685;48.762;44.822;2023-03-14T12:37:41;3.03;;;0.70;;
75997;SDS011;64685;48.762;44.822;2023-03-14T12:42:56;1.77;;;0.57;;
75997;SDS011;64685;48.762;44.822;2023-03-14T12:48:10;2.22;;;0.70;;
75997;SDS011;64685;48.762;44.822;2023-03-14T12:59:20;2.15;;;1.00;;
75997;SDS011;64685;48.762;44.822;2023-03-14T13:09:52;1.90;;;0.77;;
75997;SDS011;64685;48.762;44.822;2023-03-14T13:14:57;4.60;;;1.25;;
75997;SDS011;64685;48.762;44.822;2023-03-14T13:20:03;3.13;;;1.08;;
75997;SDS011;64685;48.762;44.822;2023-03-14T13:25:15;4.68;;;1.08;;
75997;SDS011;64685;48.762;44.822;2023-03-14T13:30:26;2.65;;;1.08;;
75997;SDS011;64685;48.762;44.822;2023-03-14T13:35:38;2.30;;;0.90;;
75997;SDS011;64685;48.762;44.822;2023-03-14T13:41:05;1.98;;;0.63;;
75997;SDS011;64685;48.762;44.822;2023-03-14T13:46:16;3.20;;;0.85;;
75997;SDS011;64685;48.762;44.822;2023-03-14T13:51:23;3.60;;;1.40;;
75997;SDS011;64685;48.762;44.822;2023-03-14T13:56:30;2.58;;;0.65;;
75997;SDS011;64685;48.762;44.822;2023-03-14T14:01:35;0.75;;;0.40;;
75997;SDS011;64685;48.762;44.822;2023-03-14T14:06:47;1.65;;;0.30;;
75997;SDS011;64685;48.762;44.822;2023-03-14T14:12:00;1.63;;;0.40;;
75997;SDS011;64685;48.762;44.822;2023-03-14T14:17:21;3.30;;;0.70;;
75997;SDS011;64685;48.762;44.822;2023-03-14T14:22:28;3.30;;;0.50;;
75997;SDS011;64685;48.762;44.822;2023-03-14T14:27:38;4.38;;;0.57;;
75997;SDS011;64685;48.762;44.822;2023-03-14T14:32:47;2.10;;;0.60;;
75997;SDS011;64685;48.762;44.822;2023-03-14T14:37:50;3.22;;;0.85;;
75997;SDS011;64685;48.762;44.822;2023-03-14T14:42:54;2.70;;;0.85;;
75997;SDS011;64685;48.762;44.822;2023-03-14T14:48:06;3.55;;;0.80;;
75997;SDS011;64685;48.762;44.822;2023-03-14T14:53:31;1.90;;;0.65;;
75997;SDS011;64685;48.762;44.822;2023-03-14T14:58:40;11.20;;;3.25;;
75997;SDS011;64685;48.762;44.822;2023-03-14T15:03:44;16.73;;;5.60;;
75997;SDS011;64685;48.762;44.822;2023-03-14T15:08:49;18.52;;;4.22;;
75997;SDS011;64685;48.762;44.822;2023-03-14T15:13:52;11.13;;;3.80;;
75997;SDS011;64685;48.762;44.822;2023-03-14T15:18:58;15.60;;;4.47;;
75997;SDS011;64685;48.762;44.822;2023-03-14T15:24:08;13.25;;;3.92;;
75997;SDS011;64685;48.762;44.822;2023-03-14T15:29:11;13.65;;;3.83;;
75997;SDS011;64685;48.762;44.822;2023-03-14T15:34:14;11.02;;;2.90;;
75997;SDS011;64685;48.762;44.822;2023-03-14T15:39:18;5.00;;;2.13;;
75997;SDS011;64685;48.762;44.822;2023-03-14T15:44:21;7.60;;;2.13;;
75997;SDS011;64685;48.762;44.822;2023-03-14T15:49:23;8.50;;;2.05;;
75997;SDS011;64685;48.762;44.822;2023-03-14T15:54:26;8.52;;;2.67;;
75997;SDS011;64685;48.762;44.822;2023-03-14T15:59:31;9.25;;;1.90;;
75997;SDS011;64685;48.762;44.822;2023-03-14T16:04:34;12.80;;;1.95;;
75997;SDS011;64685;48.762;44.822;2023-03-14T16:09:37;9.25;;;1.77;;
75997;SDS011;64685;48.762;44.822;2023-03-14T16:14:39;5.30;;;1.25;;
75997;SDS011;64685;48.762;44.822;2023-03-14T16:19:44;10.55;;;2.03;;
75997;SDS011;64685;48.762;44.822;2023-03-14T16:24:47;12.35;;;3.03;;
75997;SDS011;64685;48.762;44.822;2023-03-14T16:29:49;8.65;;;2.45;;
75997;SDS011;64685;48.762;44.822;2023-03-14T16:34:53;13.25;;;3.63;;
75997;SDS011;64685;48.762;44.822;2023-03-14T16:39:56;13.38;;;3.72;;
75997;SDS011;64685;48.762;44.822;2023-03-14T16:45:13;12.30;;;3.25;;
75997;SDS011;64685;48.762;44.822;2023-03-14T16:50:16;10.82;;;2.90;;
75997;SDS011;64685;48.762;44.822;2023-03-14T16:55:18;11.73;;;2.92;;
75997;SDS011;64685;48.762;44.822;2023-03-14T17:00:21;9.43;;;2.72;;
75997;SDS011;64685;48.762;44.822;2023-03-14T17:05:24;9.57;;;2.75;;
75997;SDS011;64685;48.762;44.822;2023-03-14T17:10:26;7.40;;;2.33;;
75997;SDS011;64685;48.762;44.822;2023-03-14T17:15:29;8.80;;;3.10;;
75997;SDS011;64685;48.762;44.822;2023-03-14T17:20:32;10.48;;;2.88;;
75997;SDS011;64685;48.762;44.822;2023-03-14T17:25:35;6.65;;;2.58;;
75997;SDS011;64685;48.762;44.822;2023-03-14T17:30:38;8.50;;;2.92;;
75997;SDS011;64685;48.762;44.822;2023-03-14T17:35:42;7.97;;;2.40;;
75997;SDS011;64685;48.762;44.822;2023-03-14T17:40:48;9.13;;;1.77;;
75997;SDS011;64685;48.762;44.822;2023-03-14T17:45:58;3.63;;;1.10;;
75997;SDS011;64685;48.762;44.822;2023-03-14T17:51:03;6.97;;;1.80;;
75997;SDS011;64685;48.762;44.822;2023-03-14T17:56:06;5.43;;;1.52;;
75997;SDS011;64685;48.762;44.822;2023-03-14T18:01:13;2.22;;;1.20;;
75997;SDS011;64685;48.762;44.822;2023-03-14T18:11:24;4.25;;;1.10;;
75997;SDS011;64685;48.762;44.822;2023-03-14T18:16:27;3.85;;;1.90;;
75997;SDS011;64685;48.762;44.822;2023-03-14T18:21:30;6.10;;;1.80;;
75997;SDS011;64685;48.762;44.822;2023-03-14T18:26:32;6.07;;;1.77;;
75997;SDS011;64685;48.762;44.822;2023-03-14T18:31:35;5.07;;;1.80;;
75997;SDS011;64685;48.762;44.822;2023-03-14T18:36:37;7.75;;;2.63;;
75997;SDS011;64685;48.762;44.822;2023-03-14T18:41:40;5.25;;;2.03;;
75997;SDS011;64685;48.762;44.822;2023-03-14T18:46:43;5.65;;;1.75;;
75997;SDS011;64685;48.762;44.822;2023-03-14T18:51:46;6.05;;;2.42;;
75997;SDS011;64685;48.762;44.822;2023-03-14T18:56:48;4.20;;;1.40;;
75997;SDS011;64685;48.762;44.822;2023-03-14T19:01:52;2.25;;;0.80;;
75997;SDS011;64685;48.762;44.822;2023-03-14T19:06:55;5.40;;;1.88;;
75997;SDS011;64685;48.762;44.822;2023-03-14T19:11:58;6.07;;;2.05;;
75997;SDS011;64685;48.762;44.822;2023-03-14T19:17:01;6.35;;;1.70;;
75997;SDS011;64685;48.762;44.822;2023-03-14T19:22:04;2.25;;;1.15;;
75997;SDS011;64685;48.762;44.822;2023-03-14T19:27:06;3.40;;;1.02;;
75997;SDS011;64685;48.762;44.822;2023-03-14T19:32:09;5.25;;;1.48;;
75997;SDS011;64685;48.762;44.822;2023-03-14T19:37:12;3.88;;;1.17;;
75997;SDS011;64685;48.762;44.822;2023-03-14T19:42:15;2.80;;;0.80;;
75997;SDS011;64685;48.762;44.822;2023-03-14T19:47:18;5.25;;;1.33;;
75997;SDS011;64685;48.762;44.822;2023-03-14T19:52:20;5.55;;;1.80;;
75997;SDS011;64685;48.762;44.822;2023-03-14T19:57:23;4.93;;;1.65;;
75997;SDS011;64685;48.762;44.822;2023-03-14T20:02:25;4.55;;;1.48;;
75997;SDS011;64685;48.762;44.822;2023-03-14T20:07:30;3.88;;;1.08;;
75997;SDS011;64685;48.762;44.822;2023-03-14T20:12:32;5.53;;;1.98;;
75997;SDS011;64685;48.762;44.822;2023-03-14T20:17:36;3.83;;;1.60;;
75997;SDS011;64685;48.762;44.822;2023-03-14T20:22:39;2.88;;;2.10;;
75997;SDS011;64685;48.762;44.822;2023-03-14T20:27:43;5.95;;;2.00;;
75997;SDS011;64685;48.762;44.822;2023-03-14T20:32:50;2.60;;;1.13;;
75997;SDS011;64685;48.762;44.822;2023-03-14T20:37:53;5.68;;;1.73;;
75997;SDS011;64685;48.762;44.822;2023-03-14T20:42:57;4.88;;;1.63;;
75997;SDS011;64685;48.762;44.822;2023-03-14T20:47:59;3.92;;;1.50;;
75997;SDS011;64685;48.762;44.822;2023-03-14T20:53:02;5.90;;;1.55;;
75997;SDS011;64685;48.762;44.822;2023-03-14T20:58:05;4.47;;;1.25;;
75997;SDS011;64685;48.762;44.822;2023-03-14T21:03:07;6.35;;;1.65;;
75997;SDS011;64685;48.762;44.822;2023-03-14T21:08:12;6.43;;;2.65;;
75997;SDS011;64685;48.762;44.822;2023-03-14T21:13:16;6.95;;;3.13;;
75997;SDS011;64685;48.762;44.822;2023-03-14T21:18:18;6.50;;;2.42;;
75997;SDS011;64685;48.762;44.822;2023-03-14T21:23:24;6.50;;;2.13;;
75997;SDS011;64685;48.762;44.822;2023-03-14T21:28:29;8.88;;;3.28;;
75997;SDS011;64685;48.762;44.822;2023-03-14T21:33:32;7.57;;;3.50;;
75997;SDS011;64685;48.762;44.822;2023-03-14T21:38:35;7.45;;;2.50;;
75997;SDS011;64685;48.762;44.822;2023-03-14T21:43:37;4.68;;;1.65;;
75997;SDS011;64685;48.762;44.822;2023-03-14T21:48:42;1.60;;;0.88;;
75997;SDS011;64685;48.762;44.822;2023-03-14T21:53:45;4.18;;;1.17;;
75997;SDS011;64685;48.762;44.822;2023-03-14T21:58:47;3.08;;;1.08;;
75997;SDS011;64685;48.762;44.822;2023-03-14T22:03:50;5.05;;;1.40;;
75997;SDS011;64685;48.762;44.822;2023-03-14T22:08:52;4.20;;;1.20;;
75997;SDS011;64685;48.762;44.822;2023-03-14T22:13:58;3.72;;;1.00;;
75997;SDS011;64685;48.762;44.822;2023-03-14T22:19:00;2.05;;;0.77;;
75997;SDS011;64685;48.762;44.822;2023-03-14T22:24:03;3.10;;;0.90;;
75997;SDS011;64685;48.762;44.822;2023-03-14T22:29:06;1.38;;;0.40;;
75997;SDS011;64685;48.762;44.822;2023-03-14T22:34:08;2.60;;;0.75;;
75997;SDS011;64685;48.762;44.822;2023-03-14T22:39:11;4.60;;;1.48;;
75997;SDS011;64685;48.762;44.822;2023-03-14T22:44:14;1.88;;;0.55;;
75997;SDS011;64685;48.762;44.822;2023-03-14T22:49:16;1.17;;;0.70;;
75997;SDS011;64685;48.762;44.822;2023-03-14T22:54:20;1.55;;;0.70;;
75997;SDS011;64685;48.762;44.822;2023-03-14T22:59:23;1.25;;;0.40;;
75997;SDS011;64685;48.762;44.822;2023-03-14T23:04:25;2.22;;;0.52;;
75997;SDS011;64685;48.762;44.822;2023-03-14T23:09:28;3.22;;;0.80;;
75997;SDS011;64685;48.762;44.822;2023-03-14T23:14:32;0.45;;;0.30;;
75997;SDS011;64685;48.762;44.822;2023-03-14T23:19:34;1.13;;;0.38;;
75997;SDS011;64685;48.762;44.822;2023-03-14T23:24:39;0.93;;;0.30;;
75997;SDS011;64685;48.762;44.822;2023-03-14T23:29:44;1.67;;;0.60;;
75997;SDS011;64685;48.762;44.822;2023-03-14T23:34:47;1.30;;;0.38;;
75997;SDS011;64685;48.762;44.822;2023-03-14T23:39:50;0.80;;;0.40;;
75997;SDS011;64685;48.762;44.822;2023-03-14T23:44:53;2.67;;;0.70;;
75997;SDS011;64685;48.762;44.822;2023-03-14T23:49:55;1.17;;;0.52;;
75997;SDS011;64685;48.762;44.822;2023-03-14T23:54:58;1.17;;;0.40;;
